Time;durP1;ratioP1;P1;durP2;ratioP2;P2;SDS_P1;SDS_P2;PMS_P1;PMS_P2;Temp;Humidity;BMP_temperature;BMP_pressure;BME280_temperature;BME280_humidity;BME280_pressure;Samples;Min_cycle;Max_cycle;Signal;HPM_P1;HPM_P2
2021/10/27 00:01:35;;;;;;;51.00;34.10;;;;;;;6.02;83.85;99783.03;112517;1192;61055;-77
2021/10/27 00:04:03;;;;;;;50.80;33.80;;;;;;;6.00;83.91;99781.70;112549;1192;61004;-78
2021/10/27 00:06:30;;;;;;;48.50;35.60;;;;;;;5.97;83.93;99779.86;112589;1193;67079;-78
2021/10/27 00:08:56;;;;;;;50.80;36.60;;;;;;;5.92;83.99;99776.29;112468;1191;61020;-78
2021/10/27 00:11:22;;;;;;;52.50;35.00;;;;;;;5.89;84.02;99775.35;112563;1192;61055;-78
2021/10/27 00:13:49;;;;;;;47.20;33.70;;;;;;;5.86;84.09;99778.11;112554;1192;60927;-78
2021/10/27 00:16:15;;;;;;;50.20;36.10;;;;;;;5.82;84.21;99784.06;112497;1192;60966;-77
2021/10/27 00:18:42;;;;;;;51.50;36.20;;;;;;;5.80;84.31;99787.14;112508;1192;60974;-77
2021/10/27 00:21:09;;;;;;;48.00;34.70;;;;;;;5.78;84.32;99782.63;112370;1193;61036;-78
2021/10/27 00:23:35;;;;;;;48.10;35.40;;;;;;;5.72;84.36;99788.09;112453;1192;65001;-77
2021/10/27 00:26:02;;;;;;;51.00;36.40;;;;;;;5.68;84.46;99792.99;112345;1182;61703;-78
2021/10/27 00:28:28;;;;;;;52.20;38.00;;;;;;;5.66;84.58;99791.67;112473;1192;61070;-78
2021/10/27 00:30:55;;;;;;;49.20;34.70;;;;;;;5.63;84.69;99795.11;112506;1188;61059;-77
2021/10/27 00:33:22;;;;;;;52.10;37.60;;;;;;;5.62;84.78;99796.57;112539;1193;61060;-78
2021/10/27 00:35:49;;;;;;;49.00;35.70;;;;;;;5.59;84.93;99798.63;112353;1191;65013;-77
2021/10/27 00:38:15;;;;;;;50.10;34.80;;;;;;;5.53;84.84;99798.63;112532;1191;61051;-77
2021/10/27 00:40:42;;;;;;;48.80;38.20;;;;;;;5.47;84.90;99799.71;112537;1192;61058;-78
2021/10/27 00:43:08;;;;;;;48.30;36.40;;;;;;;5.42;85.01;99805.67;112485;1192;61023;-78
2021/10/27 00:45:35;;;;;;;44.40;34.60;;;;;;;5.38;85.17;99807.23;112496;1192;60946;-78
2021/10/27 00:48:01;;;;;;;51.20;38.90;;;;;;;5.32;85.23;99813.08;112511;1192;60962;-79
2021/10/27 00:50:28;;;;;;;47.10;34.20;;;;;;;5.27;85.38;99812.50;112518;1193;61055;-79
2021/10/27 00:52:54;;;;;;;45.00;33.40;;;;;;;5.22;85.32;99810.39;112492;1192;61039;-77
2021/10/27 00:55:21;;;;;;;44.90;34.60;;;;;;;5.16;85.35;99811.45;112546;1177;61090;-78
2021/10/27 00:57:47;;;;;;;47.50;35.60;;;;;;;5.10;85.35;99815.17;112480;1192;60978;-80
2021/10/27 01:00:15;;;;;;;49.50;38.60;;;;;;;5.03;85.49;99815.91;112546;1192;60990;-80
2021/10/27 01:02:42;;;;;;;44.90;35.50;;;;;;;4.97;85.72;99814.70;112517;1191;61115;-78
2021/10/27 01:05:09;;;;;;;47.80;36.50;;;;;;;4.92;85.73;99809.04;112401;1192;61071;-77
2021/10/27 01:07:36;;;;;;;47.60;37.20;;;;;;;4.86;85.69;99806.75;112588;1193;65993;-79
2021/10/27 01:10:03;;;;;;;46.80;36.70;;;;;;;4.80;85.85;99807.80;112358;1192;61060;-79
2021/10/27 01:12:31;;;;;;;56.50;41.70;;;;;;;4.75;85.95;99808.16;112546;1191;63902;-78
2021/10/27 01:14:57;;;;;;;59.50;43.00;;;;;;;4.70;86.05;99807.79;112521;1192;61048;-78
2021/10/27 01:17:24;;;;;;;51.80;40.70;;;;;;;4.66;86.22;99805.98;112467;1192;61070;-78
2021/10/27 01:19:54;;;;;;;57.40;42.70;;;;;;;4.61;86.21;99802.41;112529;1193;66022;-78
2021/10/27 01:22:24;;;;;;;54.90;44.50;;;;;;;4.57;86.39;99801.98;112597;1192;60950;-78
2021/10/27 01:24:53;;;;;;;59.50;46.40;;;;;;;4.56;86.45;99797.95;112404;1192;65409;-78
2021/10/27 01:27:20;;;;;;;55.20;43.60;;;;;;;4.60;86.60;99793.45;112515;1192;61119;-78
2021/10/27 01:29:47;;;;;;;72.50;51.00;;;;;;;4.62;86.70;99801.34;112565;1192;61774;-77
2021/10/27 01:32:30;;;;;;;61.90;46.00;;;;;;;4.62;86.82;99803.23;112487;1191;65682;-78
2021/10/27 01:34:59;;;;;;;64.70;49.50;;;;;;;4.68;86.98;99804.83;112402;1193;61061;-78
2021/10/27 01:37:25;;;;;;;60.40;48.20;;;;;;;4.74;87.11;99809.39;112562;1193;64019;-77
2021/10/27 01:39:53;;;;;;;62.70;50.30;;;;;;;4.80;87.13;99810.10;112331;1192;61055;-79
2021/10/27 01:42:20;;;;;;;65.30;49.70;;;;;;;4.86;87.18;99808.33;112450;1192;61014;-79
2021/10/27 01:44:47;;;;;;;61.50;48.80;;;;;;;4.91;87.19;99812.59;112498;1192;64453;-78
2021/10/27 01:47:14;;;;;;;63.00;51.00;;;;;;;4.95;87.26;99817.59;112374;1193;61207;-78
2021/10/27 01:49:41;;;;;;;64.00;48.60;;;;;;;4.99;87.39;99812.16;112514;1192;63980;-78
2021/10/27 01:52:08;;;;;;;61.10;49.70;;;;;;;5.04;87.44;99810.25;112509;1191;61013;-78
2021/10/27 01:54:34;;;;;;;59.90;47.50;;;;;;;5.07;87.46;99815.09;112497;1191;61020;-78
2021/10/27 01:57:01;;;;;;;62.60;50.30;;;;;;;5.11;87.50;99812.84;112482;1177;67011;-79
2021/10/27 01:59:28;;;;;;;65.20;52.90;;;;;;;5.17;87.52;99815.14;112544;1192;61016;-79
2021/10/27 02:01:55;;;;;;;78.40;58.00;;;;;;;5.19;87.58;99817.70;112495;1192;60965;-77
2021/10/27 02:04:21;;;;;;;73.10;60.90;;;;;;;5.21;87.66;99820.80;112343;1192;61001;-78
2021/10/27 02:06:48;;;;;;;80.80;64.90;;;;;;;5.24;87.81;99819.65;112460;1192;61029;-78
2021/10/27 02:09:15;;;;;;;80.30;66.30;;;;;;;5.27;87.90;99819.03;112524;1192;64441;-79
2021/10/27 02:11:42;;;;;;;91.30;71.50;;;;;;;5.32;87.92;99819.42;112174;1193;61021;-79
2021/10/27 02:14:08;;;;;;;80.80;64.40;;;;;;;5.35;87.94;99821.23;112539;1192;64016;-78
2021/10/27 02:16:35;;;;;;;78.80;64.40;;;;;;;5.39;88.04;99821.45;112364;1192;61154;-78
2021/10/27 02:19:02;;;;;;;84.10;64.00;;;;;;;5.41;88.13;99822.46;112359;1192;60975;-77
2021/10/27 02:21:29;;;;;;;85.60;68.10;;;;;;;5.43;88.01;99822.75;112507;1192;65813;-78
2021/10/27 02:23:55;;;;;;;78.50;61.80;;;;;;;5.44;88.06;99822.88;112567;1193;60902;-78
2021/10/27 02:26:22;;;;;;;77.40;61.60;;;;;;;5.43;88.09;99825.02;112517;1192;60965;-77
2021/10/27 02:28:50;;;;;;;75.70;59.90;;;;;;;5.42;88.06;99828.42;112535;1192;61012;-77
2021/10/27 02:31:17;;;;;;;75.00;60.50;;;;;;;5.40;88.14;99825.50;112563;1191;61045;-79
2021/10/27 02:33:44;;;;;;;76.80;60.90;;;;;;;5.39;88.26;99833.09;112505;1193;66032;-77
2021/10/27 02:36:10;;;;;;;80.10;62.40;;;;;;;5.39;88.30;99830.62;112535;1192;61047;-78
2021/10/27 02:38:38;;;;;;;75.90;60.20;;;;;;;5.40;88.33;99831.64;112518;1192;62319;-79
2021/10/27 02:41:04;;;;;;;68.50;56.60;;;;;;;5.41;88.41;99831.10;112500;1193;61048;-77
2021/10/27 02:43:31;;;;;;;76.70;60.40;;;;;;;5.42;88.43;99832.12;112511;1193;60997;-77
2021/10/27 02:45:57;;;;;;;72.30;56.80;;;;;;;5.46;88.65;99834.64;112482;1191;61048;-77
2021/10/27 02:48:24;;;;;;;68.40;54.60;;;;;;;5.49;88.72;99834.01;112541;1191;61012;-79
2021/10/27 02:50:50;;;;;;;71.90;54.60;;;;;;;5.50;88.84;99838.02;112508;1192;61168;-77
2021/10/27 02:53:17;;;;;;;68.60;52.50;;;;;;;5.51;88.91;99837.46;112477;1192;61036;-78
2021/10/27 02:55:43;;;;;;;69.90;54.70;;;;;;;5.54;88.91;99837.54;112357;1193;61030;-79
2021/10/27 02:58:10;;;;;;;73.10;54.80;;;;;;;5.58;88.92;99838.85;112534;1192;61395;-79
2021/10/27 03:00:36;;;;;;;64.20;52.00;;;;;;;5.62;88.96;99839.41;112330;1192;61103;-79
2021/10/27 03:03:03;;;;;;;66.60;52.00;;;;;;;5.65;88.97;99843.88;112457;1192;61074;-79
2021/10/27 03:05:31;;;;;;;63.20;52.70;;;;;;;5.67;89.01;99845.73;112313;1193;61058;-79
2021/10/27 03:07:58;;;;;;;70.40;53.10;;;;;;;5.70;88.99;99845.11;112525;1193;61055;-77
2021/10/27 03:10:24;;;;;;;67.50;52.40;;;;;;;5.75;88.94;99845.33;112489;1193;66353;-79
2021/10/27 03:12:51;;;;;;;70.10;56.70;;;;;;;5.78;88.93;99846.45;112526;1192;60966;-79
2021/10/27 03:15:18;;;;;;;79.20;62.80;;;;;;;5.81;89.06;99850.05;112504;1192;61036;-78
2021/10/27 03:17:44;;;;;;;77.90;59.50;;;;;;;5.84;89.03;99847.83;112320;1193;61062;-77
2021/10/27 03:20:11;;;;;;;78.00;55.70;;;;;;;5.86;89.04;99850.41;112519;1191;61031;-77
2021/10/27 03:22:38;;;;;;;75.70;56.00;;;;;;;5.88;89.11;99849.27;112493;1192;66188;-78
2021/10/27 03:25:05;;;;;;;68.80;52.20;;;;;;;5.92;89.09;99850.56;112560;1193;60988;-77
2021/10/27 03:27:32;;;;;;;72.30;54.20;;;;;;;5.96;89.13;99853.09;112502;1193;63771;-77
2021/10/27 03:29:59;;;;;;;69.50;53.00;;;;;;;6.00;89.20;99850.50;112535;1192;61709;-77
2021/10/27 03:32:27;;;;;;;63.10;46.90;;;;;;;6.03;89.26;99851.82;112520;1192;61147;-78
2021/10/27 03:34:53;;;;;;;64.10;48.40;;;;;;;6.02;89.28;99855.19;112523;1193;65858;-77
2021/10/27 03:37:20;;;;;;;63.50;47.60;;;;;;;6.03;89.21;99861.16;112471;1193;60985;-80
2021/10/27 03:39:46;;;;;;;66.10;46.80;;;;;;;6.06;89.28;99859.82;112429;1192;61032;-79
2021/10/27 03:42:12;;;;;;;66.40;47.90;;;;;;;6.09;89.32;99858.12;112466;1183;61055;-78
2021/10/27 03:44:39;;;;;;;67.30;50.60;;;;;;;6.13;89.32;99853.20;112534;1193;61020;-80
2021/10/27 03:47:05;;;;;;;72.20;57.30;;;;;;;6.18;89.26;99851.63;112499;1193;60946;-78
2021/10/27 03:49:32;;;;;;;70.70;57.30;;;;;;;6.20;89.33;99853.14;112457;1193;61036;-80
2021/10/27 03:51:59;;;;;;;72.40;56.00;;;;;;;6.21;89.28;99854.73;112510;1193;61033;-80
2021/10/27 03:54:25;;;;;;;74.90;56.70;;;;;;;6.21;89.29;99848.34;112583;1192;61071;-80
2021/10/27 03:56:52;;;;;;;77.10;58.70;;;;;;;6.22;89.32;99855.55;112517;1192;61174;-80
2021/10/27 03:59:18;;;;;;;74.70;58.00;;;;;;;6.21;89.22;99857.89;112490;1192;61022;-82
2021/10/27 04:01:45;;;;;;;71.10;56.80;;;;;;;6.20;89.17;99859.17;112580;1192;61044;-79
2021/10/27 04:04:11;;;;;;;70.40;52.90;;;;;;;6.20;89.27;99857.37;112372;1193;61431;-79
2021/10/27 04:06:38;;;;;;;69.80;53.30;;;;;;;6.20;89.32;99854.55;112543;1192;60959;-80
2021/10/27 04:09:04;;;;;;;70.30;50.20;;;;;;;6.17;89.23;99858.19;112517;1193;61058;-78
2021/10/27 04:11:31;;;;;;;65.00;51.60;;;;;;;6.12;89.17;99862.42;112463;1192;60943;-78
2021/10/27 04:13:57;;;;;;;70.30;53.50;;;;;;;6.06;89.18;99863.52;112581;1193;61074;-79
2021/10/27 04:16:24;;;;;;;67.30;52.10;;;;;;;6.03;89.26;99860.27;112557;1192;61045;-78
2021/10/27 04:18:50;;;;;;;67.50;51.00;;;;;;;5.99;89.24;99859.17;112551;1192;61036;-78
2021/10/27 04:21:17;;;;;;;72.20;53.90;;;;;;;5.94;89.17;99865.15;112544;1191;60975;-78
2021/10/27 04:23:43;;;;;;;71.20;55.20;;;;;;;5.88;89.16;99867.80;112611;1191;61055;-78
2021/10/27 04:26:09;;;;;;;74.00;57.70;;;;;;;5.82;89.25;99867.66;112541;1192;60965;-78
2021/10/27 04:28:36;;;;;;;72.90;57.00;;;;;;;5.77;89.28;99867.14;112548;1193;61015;-79
2021/10/27 04:31:02;;;;;;;70.20;54.80;;;;;;;5.71;89.27;99867.46;112459;1192;61032;-79
2021/10/27 04:33:29;;;;;;;78.00;57.30;;;;;;;5.67;89.27;99870.25;112531;1192;61045;-78
2021/10/27 04:35:56;;;;;;;74.80;59.40;;;;;;;5.62;89.46;99871.29;112347;1193;61423;-78
2021/10/27 04:38:22;;;;;;;78.80;59.90;;;;;;;5.60;89.57;99875.96;112540;1192;61040;-77
2021/10/27 04:40:50;;;;;;;78.50;58.20;;;;;;;5.58;89.66;99880.44;112530;1192;61083;-79
2021/10/27 04:43:17;;;;;;;70.00;55.20;;;;;;;5.57;89.72;99881.88;112299;1192;61090;-78
2021/10/27 04:45:43;;;;;;;76.90;60.00;;;;;;;5.56;89.82;99879.08;112344;1192;61090;-78
2021/10/27 04:48:10;;;;;;;73.10;55.00;;;;;;;5.56;89.87;99879.45;112567;1192;65757;-79
2021/10/27 04:50:37;;;;;;;81.20;57.90;;;;;;;5.56;89.88;99881.74;112529;1193;61427;-78
2021/10/27 04:53:12;;;;;;;78.50;58.70;;;;;;;5.57;89.92;99886.09;112491;1193;62739;-78
2021/10/27 04:55:38;;;;;;;79.50;60.90;;;;;;;5.59;90.04;99888.16;112502;1192;61029;-77
2021/10/27 04:58:05;;;;;;;74.60;59.10;;;;;;;5.61;90.14;99893.02;112559;1193;61018;-79
2021/10/27 05:00:31;;;;;;;77.40;57.90;;;;;;;5.63;90.34;99898.77;112472;1193;60995;-78
2021/10/27 05:02:58;;;;;;;79.00;58.90;;;;;;;5.65;90.32;99898.17;112470;1191;61031;-80
2021/10/27 05:05:26;;;;;;;82.90;60.20;;;;;;;5.67;90.38;99897.07;112338;1192;61062;-76
2021/10/27 05:07:53;;;;;;;80.40;62.90;;;;;;;5.67;90.36;99901.45;112540;1192;61151;-77
2021/10/27 05:10:19;;;;;;;77.60;59.80;;;;;;;5.68;90.38;99899.84;112528;1192;61035;-82
2021/10/27 05:12:46;;;;;;;71.60;57.70;;;;;;;5.70;90.50;99903.83;112541;1192;60946;-79
2021/10/27 05:15:12;;;;;;;73.90;57.90;;;;;;;5.72;90.54;99906.21;112291;1192;61438;-79
2021/10/27 05:17:39;;;;;;;71.70;57.30;;;;;;;5.75;90.59;99903.52;112307;1192;61114;-80
2021/10/27 05:20:06;;;;;;;72.30;56.90;;;;;;;5.76;90.63;99903.11;112530;1193;61646;-79
2021/10/27 05:22:32;;;;;;;71.10;56.80;;;;;;;5.78;90.64;99904.44;112495;1192;60969;-79
2021/10/27 05:24:59;;;;;;;77.40;59.90;;;;;;;5.79;90.66;99907.61;112314;1193;60988;-80
2021/10/27 05:27:25;;;;;;;74.30;57.60;;;;;;;5.82;90.70;99914.05;112547;1192;60930;-80
2021/10/27 05:29:52;;;;;;;77.50;56.60;;;;;;;5.83;90.71;99917.19;112588;1193;61017;-80
2021/10/27 05:32:18;;;;;;;74.50;55.00;;;;;;;5.83;90.79;99919.64;112359;1193;61036;-78
2021/10/27 05:34:45;;;;;;;72.80;57.20;;;;;;;5.83;90.88;99923.86;112529;1192;61045;-78
2021/10/27 05:37:12;;;;;;;72.40;55.90;;;;;;;5.85;90.89;99924.34;112507;1192;65967;-78
2021/10/27 05:39:39;;;;;;;89.10;63.60;;;;;;;5.86;90.82;99925.91;112518;1193;61178;-76
2021/10/27 05:42:09;;;;;;;100.80;69.90;;;;;;;5.85;90.83;99930.33;112498;1191;62767;-77
2021/10/27 05:44:36;;;;;;;96.30;66.40;;;;;;;5.85;90.84;99929.26;112472;1193;60998;-79
2021/10/27 05:47:03;;;;;;;110.30;74.60;;;;;;;5.87;90.87;99930.09;112536;1192;61036;-79
2021/10/27 05:49:46;;;;;;;105.10;70.50;;;;;;;5.91;90.87;99930.67;112346;1192;64579;-78
2021/10/27 05:55:05;;;;;;;97.90;75.70;;;;;;;6.00;90.85;99934.11;112519;1192;60929;-79
2021/10/27 05:57:38;;;;;;;96.60;69.80;;;;;;;6.06;90.86;99938.48;112543;1193;61036;-78
2021/10/27 06:00:12;;;;;;;97.00;67.40;;;;;;;6.10;90.82;99944.02;112489;1192;61085;-79
2021/10/27 06:02:39;;;;;;;93.40;68.00;;;;;;;6.13;90.78;99945.85;112564;1192;66580;-78
2021/10/27 06:05:07;;;;;;;91.00;65.00;;;;;;;6.18;90.83;99947.10;112395;1192;61808;-77
2021/10/27 06:07:34;;;;;;;93.10;67.00;;;;;;;6.24;90.86;99948.83;112512;1192;64659;-78
2021/10/27 06:10:00;;;;;;;87.30;63.50;;;;;;;6.29;90.81;99948.83;112520;1191;61055;-77
2021/10/27 06:12:28;;;;;;;83.10;61.60;;;;;;;6.36;90.72;99951.27;112559;1192;61042;-77
2021/10/27 06:14:55;;;;;;;83.40;61.30;;;;;;;6.46;90.66;99950.38;112542;1192;64799;-77
2021/10/27 06:17:22;;;;;;;82.00;61.00;;;;;;;6.54;90.60;99947.95;112306;1193;61000;-78
2021/10/27 06:19:52;;;;;;;80.80;58.20;;;;;;;6.62;90.54;99952.46;112517;1193;64793;-78
2021/10/27 06:22:21;;;;;;;74.30;56.90;;;;;;;6.70;90.41;99953.23;112522;1193;61104;-78
2021/10/27 06:24:48;;;;;;;83.90;59.10;;;;;;;6.77;90.31;99956.34;112628;1192;61019;-79
2021/10/27 06:27:16;;;;;;;70.10;53.50;;;;;;;6.82;90.25;99957.73;112569;1192;65619;-78
2021/10/27 06:29:56;;;;;;;66.80;51.70;;;;;;;6.84;90.10;99961.03;112714;1193;61045;-91
2021/10/27 06:35:04;;;;;;;70.30;53.20;;;;;;;6.86;89.74;99962.58;112893;1192;61100;-91
2021/10/27 06:48:29;;;;;;;84.20;61.60;;;;;;;6.92;89.22;99960.56;112530;1192;61097;-78
2021/10/27 06:50:55;;;;;;;80.40;58.80;;;;;;;6.95;89.21;99961.34;112523;1193;60972;-75
2021/10/27 06:53:22;;;;;;;82.70;57.40;;;;;;;6.98;89.09;99957.00;112482;1183;64777;-77
2021/10/27 06:55:48;;;;;;;66.20;49.30;;;;;;;7.00;88.91;99957.81;112497;1193;61058;-78
2021/10/27 06:58:19;;;;;;;57.80;45.50;;;;;;;7.01;88.68;99956.51;112512;1193;61055;-78
2021/10/27 07:00:50;;;;;;;65.90;48.40;;;;;;;7.06;88.65;99953.88;112544;1193;61052;-78
2021/10/27 07:17:08;;;;;;;57.10;41.20;;;;;;;7.51;88.11;99958.52;112515;1192;61007;-76
2021/10/27 07:19:35;;;;;;;57.50;41.70;;;;;;;7.56;87.96;99958.67;112515;1193;60972;-77
2021/10/27 07:22:02;;;;;;;53.60;40.20;;;;;;;7.62;87.89;99959.52;112492;1193;61055;-77
2021/10/27 07:24:29;;;;;;;57.70;41.00;;;;;;;7.67;87.70;99953.09;112493;1191;63726;-76
2021/10/27 07:26:59;;;;;;;54.40;42.50;;;;;;;7.76;87.63;99956.14;112497;1191;61075;-76
2021/10/27 07:29:25;;;;;;;60.40;43.00;;;;;;;7.84;87.42;99960.05;112583;1192;60937;-75
2021/10/27 07:31:52;;;;;;;56.20;41.00;;;;;;;7.91;87.40;99958.52;112571;1193;64343;-77
2021/10/27 07:34:19;;;;;;;57.70;41.50;;;;;;;8.01;87.32;99954.41;112534;1192;61039;-77
2021/10/27 07:42:17;;;;;;;56.50;40.50;;;;;;;8.27;86.67;99958.48;112550;1192;61020;-76
2021/10/27 07:44:45;;;;;;;57.00;41.90;;;;;;;8.34;86.49;99959.05;112264;1177;64336;-76
2021/10/27 07:47:12;;;;;;;60.20;45.70;;;;;;;8.43;86.34;99961.35;112498;1193;61045;-76
2021/10/27 07:49:39;;;;;;;61.60;48.30;;;;;;;8.54;86.43;99959.48;112548;1192;71270;-77
2021/10/27 07:52:07;;;;;;;65.10;47.20;;;;;;;8.63;86.28;99960.30;112551;1193;61103;-77
2021/10/27 07:54:45;;;;;;;60.70;45.80;;;;;;;8.72;86.15;99959.76;112561;1193;61148;-77
2021/10/27 07:57:56;;;;;;;59.50;46.20;;;;;;;8.81;86.03;99960.77;112337;1192;65775;-76
2021/10/27 08:01:02;;;;;;;60.30;44.70;;;;;;;8.92;85.81;99959.95;112023;1195;61049;-76
2021/10/27 08:03:57;;;;;;;62.50;43.50;;;;;;;9.00;85.49;99960.30;112000;1195;63968;-77
2021/10/27 08:06:41;;;;;;;59.50;44.80;;;;;;;9.08;85.27;99964.35;111957;1195;61042;-77
2021/10/27 08:09:15;;;;;;;61.60;46.40;;;;;;;9.19;85.30;99963.68;112136;1195;61042;-77
2021/10/27 08:11:41;;;;;;;59.70;47.10;;;;;;;9.29;85.04;99965.55;112124;1195;64360;-77
2021/10/27 08:14:08;;;;;;;60.60;43.10;;;;;;;9.37;84.92;99964.08;112027;1195;60936;-77
2021/10/27 08:16:35;;;;;;;57.80;42.70;;;;;;;9.45;84.66;99958.40;112068;1195;64724;-76
2021/10/27 08:19:02;;;;;;;58.60;45.40;;;;;;;9.54;84.52;99957.61;112103;1195;62472;-77
2021/10/27 08:21:28;;;;;;;56.60;44.20;;;;;;;9.61;84.47;99956.41;112082;1196;61033;-76
2021/10/27 08:23:55;;;;;;;59.40;42.70;;;;;;;9.66;84.24;99953.31;112102;1196;66044;-76
2021/10/27 08:26:25;;;;;;;50.20;39.20;;;;;;;9.74;84.21;99956.33;112129;1195;61029;-76
2021/10/27 08:29:11;;;;;;;49.20;37.50;;;;;;;9.82;84.06;99958.95;112109;1193;62346;-75
2021/10/27 08:31:41;;;;;;;51.20;37.40;;;;;;;9.93;83.80;99964.48;112225;1192;61031;-78
2021/10/27 08:36:35;;;;;;;49.90;35.90;;;;;;;10.12;83.35;99971.34;112487;1193;65963;-76
2021/10/27 08:39:05;;;;;;;48.40;34.60;;;;;;;10.19;83.18;99972.23;112306;1192;61058;-76
2021/10/27 08:41:32;;;;;;;43.30;31.80;;;;;;;10.26;82.92;99971.53;112543;1177;64979;-76
2021/10/27 08:43:59;;;;;;;33.50;24.90;;;;;;;10.34;82.63;99968.68;112502;1192;60997;-76
2021/10/27 08:46:27;;;;;;;29.80;22.50;;;;;;;10.40;81.89;99968.38;112363;1193;60904;-76
2021/10/27 08:48:55;;;;;;;28.30;21.50;;;;;;;10.46;81.68;99967.73;112538;1192;65604;-76
2021/10/27 08:51:26;;;;;;;28.90;22.50;;;;;;;10.53;81.65;99963.80;112550;1192;60969;-77
2021/10/27 08:53:54;;;;;;;27.70;22.40;;;;;;;10.63;81.77;99963.66;112488;1193;63996;-76
2021/10/27 08:56:22;;;;;;;23.60;19.80;;;;;;;10.72;81.51;99961.23;112491;1191;61045;-78
2021/10/27 08:58:54;;;;;;;25.60;20.60;;;;;;;10.79;81.10;99959.59;112491;1192;61030;-77
2021/10/27 09:04:14;;;;;;;25.30;20.10;;;;;;;10.96;81.07;99960.31;112516;1193;60971;-75
2021/10/27 09:06:53;;;;;;;25.50;20.70;;;;;;;11.08;80.80;99959.15;112524;1192;64007;-75
2021/10/27 09:36:23;;;;;;;;;;;;;;;12.16;77.70;99947.62;112426;1193;64002;-76
2021/10/27 10:06:48;;;;;;;17.90;14.80;;;;;;;13.50;74.75;99929.48;112502;1192;60982;-77
2021/10/27 10:09:18;;;;;;;18.00;15.20;;;;;;;13.59;74.54;99930.89;112611;1192;61097;-77
2021/10/27 10:11:48;;;;;;;17.80;15.90;;;;;;;13.68;74.26;99926.89;112499;1192;66916;-76
2021/10/27 10:14:15;;;;;;;19.30;15.00;;;;;;;13.72;73.98;99926.45;112589;1192;61043;-76
2021/10/27 10:16:46;;;;;;;18.10;15.00;;;;;;;13.75;73.81;99926.83;112542;1193;62337;-75
2021/10/27 10:19:17;;;;;;;17.90;13.90;;;;;;;13.79;73.53;99926.36;112562;1192;61172;-76
2021/10/27 10:21:46;;;;;;;18.30;15.00;;;;;;;13.83;73.42;99924.64;112399;1192;60937;-75
2021/10/27 10:24:15;;;;;;;16.80;13.60;;;;;;;13.88;73.43;99925.95;112578;1193;66012;-76
2021/10/27 10:26:42;;;;;;;14.20;12.20;;;;;;;13.90;73.29;99922.94;112539;1193;60971;-76
2021/10/27 10:29:09;;;;;;;16.40;14.20;;;;;;;13.93;73.41;99926.49;112533;1192;63982;-76
2021/10/27 10:31:38;;;;;;;16.10;13.30;;;;;;;13.96;72.87;99929.15;112469;1192;60991;-76
2021/10/27 10:34:09;;;;;;;16.60;13.00;;;;;;;13.98;73.03;99927.46;112531;1192;61033;-77
2021/10/27 10:36:41;;;;;;;16.10;13.10;;;;;;;14.01;73.01;99925.41;112585;1193;66047;-76
2021/10/27 10:39:43;;;;;;;15.60;12.80;;;;;;;14.05;72.78;99928.39;112588;1193;61052;-77
2021/10/27 10:42:33;;;;;;;14.10;12.20;;;;;;;14.09;72.48;99926.04;112509;1193;63707;-76
2021/10/27 10:45:27;;;;;;;17.20;13.20;;;;;;;14.11;72.41;99921.40;112504;1177;60937;-77
2021/10/27 11:46:58;;;;;;;5.10;4.40;;;;;;;15.32;65.35;99851.81;112286;1192;74732;-77
2021/10/27 11:49:35;;;;;;;5.60;4.60;;;;;;;15.30;65.26;99853.20;112559;1192;60986;-76
2021/10/27 11:52:02;;;;;;;5.30;4.00;;;;;;;15.30;64.90;99851.27;112430;1193;62601;-75
2021/10/27 11:54:31;;;;;;;10.50;6.50;;;;;;;15.31;65.02;99849.91;112316;1193;61059;-76
2021/10/27 11:57:04;;;;;;;6.10;4.90;;;;;;;15.34;65.02;99849.52;112557;1193;61046;-77
2021/10/27 11:59:48;;;;;;;8.60;4.80;;;;;;;15.36;65.11;99846.81;112466;1192;65873;-77
2021/10/27 12:02:16;;;;;;;7.00;5.60;;;;;;;15.37;65.03;99842.98;112429;1193;60968;-77
2021/10/27 12:04:44;;;;;;;9.60;5.50;;;;;;;15.39;65.05;99840.73;112541;1193;62341;-78
2021/10/27 12:10:45;;;;;;;6.80;5.80;;;;;;;15.29;64.25;99841.63;112550;1193;60973;-76
2021/10/27 12:12:47;;;;;;;9.70;6.40;;;;;;;15.22;64.03;99838.25;112352;1193;67153;-76
2021/10/27 12:18:00;;;;;;;8.20;6.40;;;;;;;15.13;64.11;99839.43;112482;1193;64970;-75
2021/10/27 12:20:39;;;;;;;7.70;6.90;;;;;;;15.12;64.49;99837.16;112462;1192;61039;-77
2021/10/27 12:23:15;;;;;;;13.10;8.10;;;;;;;15.16;64.53;99844.21;112525;1193;61052;-76
2021/10/27 12:25:42;;;;;;;9.30;7.90;;;;;;;15.20;64.68;99841.80;112527;1193;64490;-77
2021/10/27 12:28:31;;;;;;;7.50;6.40;;;;;;;15.25;64.86;99841.04;112510;1192;60968;-76
2021/10/27 12:31:14;;;;;;;11.00;7.00;;;;;;;15.33;64.81;99840.44;112529;1192;64010;-77
2021/10/27 12:33:43;;;;;;;7.20;5.80;;;;;;;15.42;64.43;99839.47;112457;1193;61013;-77
2021/10/27 12:36:37;;;;;;;6.10;5.50;;;;;;;15.46;64.14;99840.96;112560;1192;61059;-76
2021/10/27 12:42:04;;;;;;;8.50;5.70;;;;;;;15.56;63.31;99829.95;112512;1193;60985;-78
2021/10/27 12:44:31;;;;;;;7.20;5.60;;;;;;;15.61;63.39;99831.43;112571;1193;64006;-76
2021/10/27 12:47:06;;;;;;;6.00;4.60;;;;;;;15.67;63.47;99829.91;112451;1191;60944;-78
2021/10/27 12:49:33;;;;;;;7.00;4.40;;;;;;;15.75;63.50;99827.54;112518;1192;61017;-78
2021/10/27 12:52:29;;;;;;;5.80;4.60;;;;;;;15.81;62.92;99833.36;112443;1193;65856;-79
2021/10/27 12:55:30;;;;;;;5.30;4.20;;;;;;;15.82;62.31;99835.59;112480;1192;61018;-78
2021/10/27 12:58:05;;;;;;;7.00;4.40;;;;;;;15.79;61.99;99836.39;112325;1193;63707;-78
2021/10/27 13:30:29;;;;;;;4.70;3.50;;;;;;;14.65;61.74;99849.10;112514;1193;61023;-76
2021/10/27 13:32:57;;;;;;;5.80;3.70;;;;;;;14.58;61.99;99850.84;112481;1191;65788;-76
2021/10/27 13:35:25;;;;;;;4.60;3.80;;;;;;;14.53;62.23;99851.54;112392;1193;61088;-76
2021/10/27 13:37:52;;;;;;;6.20;4.60;;;;;;;14.52;62.25;99851.42;112440;1193;62490;-76
2021/10/27 13:40:19;;;;;;;8.10;5.40;;;;;;;14.53;62.36;99847.05;112542;1192;61049;-77
2021/10/27 14:06:56;;;;;;;40.50;18.50;;;;;;;14.99;62.97;99833.95;112338;1185;60971;-77
2021/10/27 14:14:23;;;;;;;8.20;6.40;;;;;;;14.78;62.68;99842.68;112331;1192;61074;-76
2021/10/27 14:17:10;;;;;;;8.10;6.80;;;;;;;14.66;62.90;99841.19;112285;1192;62340;-77
2021/10/27 14:39:23;;;;;;;38.30;22.80;;;;;;;13.80;64.85;99839.47;112159;1193;64523;-78
2021/10/27 15:41:32;;;;;;;36.00;26.10;;;;;;;11.12;71.46;99835.65;112442;1193;61057;-77
2021/10/27 15:52:13;;;;;;;41.60;29.30;;;;;;;10.73;72.58;99843.29;112463;1192;65088;-77
2021/10/27 15:54:43;;;;;;;43.30;30.30;;;;;;;10.66;72.78;99845.84;112502;1192;61087;-78
2021/10/27 15:57:10;;;;;;;48.70;33.40;;;;;;;10.59;72.97;99848.36;112535;1192;61039;-75
2021/10/27 15:59:38;;;;;;;75.00;48.50;;;;;;;10.51;73.13;99853.02;112489;1192;65800;-78
2021/10/27 16:02:05;;;;;;;58.20;37.00;;;;;;;10.45;73.39;99851.04;112491;1192;60997;-78
2021/10/27 16:04:32;;;;;;;76.30;46.20;;;;;;;10.36;73.70;99856.13;112520;1192;62329;-76
2021/10/27 16:07:00;;;;;;;67.40;44.20;;;;;;;10.28;73.96;99855.46;112516;1193;61054;-76
2021/10/27 16:09:36;;;;;;;126.80;74.00;;;;;;;10.20;74.19;99855.15;112397;1192;61069;-77
2021/10/27 16:12:04;;;;;;;233.70;117.60;;;;;;;10.12;74.39;99854.49;112485;1192;64338;-76
2021/10/27 16:14:31;;;;;;;267.00;130.30;;;;;;;10.04;74.58;99859.89;112531;1192;61087;-77
2021/10/27 16:16:58;;;;;;;339.80;166.50;;;;;;;9.95;74.79;99863.36;112475;1192;62636;-77
2021/10/27 16:19:26;;;;;;;238.40;121.80;;;;;;;9.87;75.01;99865.90;112582;1192;61084;-77
2021/10/27 16:21:53;;;;;;;235.60;119.70;;;;;;;9.80;75.19;99871.02;112567;1192;61011;-76
2021/10/27 16:24:19;;;;;;;171.80;90.80;;;;;;;9.73;75.43;99874.41;112534;1192;61046;-76
2021/10/27 16:26:46;;;;;;;177.10;94.10;;;;;;;9.65;75.50;99877.45;112533;1192;60923;-77
2021/10/27 16:29:13;;;;;;;191.90;98.60;;;;;;;9.58;75.78;99881.14;112532;1192;62508;-77
2021/10/27 16:31:40;;;;;;;137.20;77.60;;;;;;;9.51;76.12;99881.67;112468;1192;61442;-76
2021/10/27 16:34:09;;;;;;;120.30;72.00;;;;;;;9.43;76.40;99883.46;112519;1193;60980;-78
2021/10/27 16:36:35;;;;;;;119.00;73.30;;;;;;;9.36;76.66;99882.03;112538;1192;66467;-76